Cotopaxi, CO

7:22 AM MDT on September 03, 2015 (GMT -0600)
Spruce Basin | | Change Station
CLOSE
Current Station
Personal Weather Station
Location: Cotopaxi, CO
Elevation: 8578 ft
Nearby Weather Stations

Elev 8578 ft 38.43 °N, 105.74 °W | Updated 8 days ago

Cloudy
Cloudy
57 °F
Feels Like 57 °F
N
7
Wind Variable Wind from WNW
Gusts mph

Today
High -- | Low -- °F
--% Chance of Precip.
Yesterday
High -- | Low -- °F
Precip. -- in
6:33 AM 7:30 PM
Waning Gibbous, 70% visible
Pressure 30.32 in
Visibility 10.0 miles
Clouds Mostly Cloudy 12000 ft
Dew Point 44 °F
Humidity 61%
Rainfall in
Snow Depth Not available.
UV 0 out of 12
Pollen 10.40 out of 12
Air Quality Not available.
Flu Activity Not available.
METAR KANK 031315Z AUTO 33010KT 10SM BKN120 15/06 A3032 RMK AO1 T01510061
Pressure 30.32 in
Visibility 10.0 miles
Clouds Mostly Cloudy 12000 ft
Dew Point 44 °F
Humidity 61%
Rainfall in
Snow Depth Not available.
UV 0 out of 12
Pollen 10.40 out of 12
Air Quality Not available.
Flu Activity Not available.
METAR KANK 031315Z AUTO 33010KT 10SM BKN120 15/06 A3032 RMK AO1 T01510061

10-Day Weather Forecast

×

Almanac

Astronomy

Sep. 03, 2015 Rise Set
Actual Time
Civil Twilight
Nautical Twilight
Astronomical Twilight
Moon
Length of Visible Light
Length of Day
Tomorrow will be .
, % of the Moon is Illuminated

Today's Extremes

State Highs State Lows

Community

WunderPhotos

Upload Photos

1,851,953 photos uploaded!

WunderBlogs® & News

Nearby

Air Quality

  Air Quality AQ Index Pollutant
Not available.

Snow Depth

Station Depth Elevation

Earthquake Activity

City Distance Mag. Time & Date
Minimum magnitude displayed is 2.5.

Coastal Water Temperatures

Place Temperature

Stations

Nearby Weather Stations

Station Location Temp. Windchill Dew Point Humidity Wind Precip. Elev Updated Type